createdAt,value
2019-04-03T04:40:45.179Z,100642.48
2019-04-03T04:43:16.814Z,100632.85
2019-04-03T04:45:48.168Z,100631.50
2019-04-03T04:48:20.724Z,100637.63
2019-04-03T04:53:17.545Z,100630.72
2019-04-03T04:55:49.046Z,100618.95
2019-04-03T04:58:20.276Z,100624.02
2019-04-03T05:00:53.682Z,100629.25
2019-04-03T05:03:24.600Z,100626.76
2019-04-03T05:05:58.230Z,100622.91
2019-04-03T05:08:29.272Z,100632.55
2019-04-03T05:11:01.027Z,100625.13
2019-04-03T05:13:32.992Z,100626.48
2019-04-03T05:16:04.232Z,100626.77
2019-04-03T05:18:35.691Z,100630.63
2019-04-03T05:21:08.071Z,100637.50
2019-04-03T05:23:39.559Z,100633.38
2019-04-03T05:26:11.041Z,100633.09
2019-04-03T05:28:53.542Z,100638.33
2019-04-03T05:31:15.480Z,100628.72
2019-04-03T05:33:46.964Z,100629.78
2019-04-03T05:36:18.511Z,100630.34
2019-04-03T05:38:52.494Z,100635.55
2019-04-03T05:41:23.457Z,100632.63
2019-04-03T05:43:54.686Z,100627.34
2019-04-03T05:46:27.272Z,100625.22
2019-04-03T05:48:59.067Z,100620.35
2019-04-03T05:51:30.419Z,100627.02
2019-04-03T05:54:01.596Z,100621.11
2019-04-03T05:56:33.079Z,100627.73
2019-04-03T05:59:04.763Z,100618.57
2019-04-03T06:01:36.289Z,100618.83
2019-04-03T06:04:09.720Z,100617.81
2019-04-03T06:06:40.642Z,100613.24
2019-04-03T06:09:12.366Z,100622.89
2019-04-03T06:11:43.940Z,100623.41
2019-04-03T06:14:15.229Z,100627.98
2019-04-03T06:26:03.160Z,100631.01
2019-04-03T06:28:34.514Z,100629.16
2019-04-03T06:31:08.315Z,100623.30
2019-04-03T06:33:39.043Z,100642.62
2019-04-03T06:36:10.727Z,100629.83
2019-04-03T06:38:42.120Z,100627.39
2019-04-03T06:41:13.869Z,100619.89
2019-04-03T06:43:45.414Z,100627.36
2019-04-03T06:46:17.007Z,100625.41
2019-04-03T06:48:48.602Z,100621.86
2019-04-03T06:51:20.162Z,100628.64
2019-04-03T06:53:51.530Z,100625.66
2019-04-03T06:56:23.275Z,100625.84
2019-04-03T06:58:55.021Z,100622.84
2019-04-03T07:01:26.431Z,100626.35
2019-04-03T07:03:58.166Z,100628.56
2019-04-03T07:06:29.703Z,100624.84
2019-04-03T07:09:01.197Z,100631.66
2019-04-03T07:11:33.837Z,100623.70
2019-04-03T07:14:05.753Z,100626.58
2019-04-03T07:16:38.501Z,100620.11
2019-04-03T07:34:54.430Z,100618.25
2019-04-03T07:37:26.102Z,100632.17
2019-04-03T08:33:32.827Z,100585.25
2019-04-03T08:36:06.721Z,100571.23
2019-04-03T08:38:38.712Z,100570.85
2019-04-03T08:41:10.263Z,100561.77
2019-04-03T08:43:42.211Z,100544.86
2019-04-03T08:46:13.723Z,100566.45
2019-04-03T08:48:45.228Z,100564.39
2019-04-03T08:51:16.796Z,100550.34
2019-04-03T08:53:48.242Z,100556.35
2019-04-03T08:56:19.793Z,100554.52
2019-04-03T08:58:51.444Z,100551.70
2019-04-03T09:01:22.774Z,100559.14
2019-04-03T09:10:14.834Z,100552.59
2019-04-03T09:12:46.025Z,100558.56
2019-04-03T09:15:17.955Z,100551.31
2019-04-03T09:17:49.154Z,100551.28
2019-04-03T10:47:39.376Z,100508.73
2019-04-03T10:49:59.059Z,100513.97
2019-04-03T10:52:30.572Z,100508.76
2019-04-03T10:55:02.012Z,100516.70
2019-04-03T10:57:34.755Z,100519.28
2019-04-03T11:00:08.888Z,100505.16
2019-04-03T11:02:40.255Z,100497.80
2019-04-03T11:05:11.989Z,100496.77
2019-04-03T11:07:43.817Z,100497.31
2019-04-03T11:10:15.516Z,100500.77
2019-04-03T11:12:46.870Z,100492.96
2019-04-03T11:15:18.479Z,100490.28
2019-04-03T11:17:50.515Z,100476.10
2019-04-03T11:20:22.044Z,100480.03
2019-04-03T11:23:03.988Z,100475.77
2019-04-03T11:25:26.612Z,100485.65
2019-04-03T11:27:58.274Z,100476.72
2019-04-03T11:30:29.688Z,100476.58
2019-04-03T11:33:00.887Z,100472.50
2019-04-03T15:14:06.337Z,100446.15
2019-04-03T15:16:40.127Z,100450.51
2019-04-03T15:19:14.107Z,100449.95
2019-04-03T15:21:44.320Z,100447.19
2019-04-03T15:24:15.593Z,100449.17
2019-04-03T15:26:46.843Z,100446.59
2019-04-03T16:39:44.938Z,100514.20
2019-04-03T16:42:17.106Z,100512.88
2019-04-03T16:44:48.329Z,100516.95
2019-04-03T16:47:19.636Z,100520.89
2019-04-03T16:49:54.272Z,100526.23
2019-04-03T16:52:23.741Z,100523.70
2019-04-03T16:54:54.892Z,100525.16
2019-04-03T16:57:26.506Z,100525.48
2019-04-03T16:59:57.758Z,100535.16
2019-04-03T17:02:29.999Z,100530.77
2019-04-03T17:05:01.314Z,100536.64
2019-04-03T17:07:32.677Z,100537.19
2019-04-03T17:10:04.756Z,100536.95
2019-04-03T17:12:36.019Z,100533.70
2019-04-03T17:15:08.537Z,100536.48
2019-04-03T17:17:41.146Z,100537.55
2019-04-03T17:20:13.040Z,100540.84
2019-04-03T17:22:46.057Z,100541.44
2019-04-03T17:25:17.449Z,100542.30
2019-04-03T17:27:57.447Z,100540.36
2019-04-03T17:30:25.532Z,100541.74
2019-04-03T17:32:56.789Z,100537.41
2019-04-03T17:35:27.981Z,100545.44
2019-04-03T17:38:00.775Z,100549.05
2019-04-03T17:40:32.194Z,100545.73
2019-04-03T17:43:03.468Z,100546.31
2019-04-03T17:45:34.733Z,100546.89
2019-04-03T17:48:05.965Z,100546.06
2019-04-03T17:50:37.156Z,100549.95
2019-04-03T17:53:09.502Z,100542.52
2019-04-03T17:55:41.526Z,100541.20
2019-04-03T17:58:16.571Z,100544.53
2019-04-03T18:00:46.381Z,100539.57
2019-04-03T18:03:19.373Z,100541.03
2019-04-03T18:05:50.611Z,100545.45
2019-04-03T18:08:22.095Z,100540.48
2019-04-03T18:10:54.428Z,100541.05
2019-04-03T18:13:28.394Z,100543.29
2019-04-03T18:15:59.677Z,100537.81
2019-04-03T18:18:33.245Z,100537.52
2019-04-03T18:21:04.049Z,100535.63
2019-04-03T18:23:35.435Z,100528.45
2019-04-03T18:26:06.716Z,100534.78
2019-04-03T18:28:37.997Z,100530.39
2019-04-03T18:31:09.294Z,100527.63
2019-04-03T18:33:40.643Z,100527.92
2019-04-03T18:36:11.901Z,100531.80
2019-04-03T18:38:43.294Z,100527.97
2019-04-03T18:41:14.998Z,100529.88
2019-04-03T18:43:50.094Z,100529.86
2019-04-03T18:46:31.660Z,100531.53
2019-04-03T18:48:58.848Z,100532.92
2019-04-03T18:51:27.587Z,100537.31
2019-04-03T18:53:58.931Z,100545.84
2019-04-03T18:56:32.056Z,100536.77
2019-04-03T18:59:03.188Z,100537.55
2019-04-03T19:01:34.461Z,100536.20
2019-04-03T19:04:07.191Z,100542.81
2019-04-03T19:06:38.979Z,100534.82
2019-04-03T19:09:10.463Z,100539.25
2019-04-03T19:11:41.832Z,100540.62
2019-04-03T19:14:21.424Z,100541.73
2019-04-03T19:16:51.435Z,100540.33
2019-04-03T19:19:19.467Z,100534.56
